createdAt,value
2017-09-10T00:00:24.436Z,60.80
2017-09-10T00:02:50.586Z,60.70
2017-09-10T00:05:16.792Z,61.20
2017-09-10T00:07:43.731Z,62.40
2017-09-10T00:10:09.927Z,62.30
2017-09-10T00:12:36.117Z,61.90
2017-09-10T00:15:02.295Z,61.90
2017-09-10T00:17:28.458Z,61.80
2017-09-10T00:19:54.665Z,61.70
2017-09-10T00:22:20.859Z,61.30
2017-09-10T00:24:47.050Z,62.30
2017-09-10T00:27:13.251Z,62.40
2017-09-10T00:29:39.436Z,62.70
2017-09-10T00:32:05.596Z,62.40
2017-09-10T00:34:31.762Z,62.10
2017-09-10T00:36:57.925Z,63.10
2017-09-10T00:39:24.080Z,62.40
2017-09-10T00:41:50.270Z,62.20
2017-09-10T00:44:16.489Z,62.30
2017-09-10T00:46:42.756Z,62.20
2017-09-10T00:49:08.899Z,62.30
2017-09-10T00:51:35.081Z,62.30
2017-09-10T00:54:01.267Z,62.30
2017-09-10T00:56:27.535Z,62.20
2017-09-10T00:58:53.691Z,62.80
2017-09-10T01:01:19.896Z,62.60
2017-09-10T01:03:46.060Z,63.00
2017-09-10T01:06:12.232Z,63.10
2017-09-10T01:08:39.143Z,64.20
2017-09-10T01:11:05.289Z,63.30
2017-09-10T01:13:32.192Z,63.80
2017-09-10T01:15:59.256Z,63.70
2017-09-10T01:18:25.483Z,64.00
2017-09-10T01:20:51.631Z,63.60
2017-09-10T01:23:17.853Z,63.80
2017-09-10T01:25:44.028Z,63.40
2017-09-10T01:28:10.225Z,63.80
2017-09-10T01:30:36.411Z,64.20
2017-09-10T01:33:02.575Z,64.50
2017-09-10T01:35:28.721Z,64.80
2017-09-10T01:37:54.987Z,65.00
2017-09-10T01:40:21.136Z,65.30
2017-09-10T01:42:47.353Z,64.60
2017-09-10T01:45:13.515Z,64.50
2017-09-10T01:47:39.671Z,64.80
2017-09-10T01:50:05.883Z,65.20
2017-09-10T01:52:32.068Z,65.20
2017-09-10T01:54:58.262Z,65.20
2017-09-10T01:57:24.453Z,65.20
2017-09-10T01:59:51.389Z,65.10
2017-09-10T02:02:17.531Z,65.10
2017-09-10T02:04:43.691Z,65.20
2017-09-10T02:07:09.859Z,65.00
2017-09-10T02:09:36.010Z,64.60
2017-09-10T02:12:02.190Z,64.80
2017-09-10T02:14:28.419Z,64.50
2017-09-10T02:16:54.696Z,64.00
2017-09-10T02:19:20.902Z,64.00
2017-09-10T02:21:47.064Z,63.80
2017-09-10T02:24:13.224Z,63.60
2017-09-10T02:26:39.382Z,63.40
2017-09-10T02:29:05.558Z,63.30
2017-09-10T02:31:31.746Z,63.30
2017-09-10T02:33:58.692Z,64.10
2017-09-10T02:36:24.879Z,63.50
2017-09-10T02:38:51.140Z,63.70
2017-09-10T02:41:17.327Z,63.90
2017-09-10T02:43:43.505Z,63.80
2017-09-10T02:46:09.635Z,63.70
2017-09-10T02:48:36.547Z,63.60
2017-09-10T02:51:02.730Z,63.60
2017-09-10T02:53:28.899Z,63.40
2017-09-10T02:55:55.066Z,63.00
2017-09-10T02:58:21.202Z,63.20
2017-09-10T03:00:47.471Z,62.50
2017-09-10T03:03:13.644Z,62.40
2017-09-10T03:05:40.565Z,62.20
2017-09-10T03:08:06.735Z,62.10
2017-09-10T03:10:32.890Z,61.80
2017-09-10T03:12:59.763Z,62.50
2017-09-10T03:15:25.916Z,62.50
2017-09-10T03:17:52.038Z,62.50
2017-09-10T03:20:18.955Z,62.80
2017-09-10T03:22:45.087Z,62.80
2017-09-10T03:25:11.248Z,62.80
2017-09-10T03:27:37.453Z,62.70
2017-09-10T03:30:03.619Z,62.80
2017-09-10T03:32:30.517Z,62.10
2017-09-10T03:34:56.670Z,62.80
2017-09-10T03:37:22.841Z,63.60
2017-09-10T03:39:49.009Z,62.80
2017-09-10T03:42:15.171Z,63.30
2017-09-10T03:44:41.317Z,62.90
2017-09-10T03:47:08.237Z,62.70
2017-09-10T03:49:34.378Z,62.70
2017-09-10T03:52:00.638Z,62.60
2017-09-10T03:54:26.848Z,62.60
2017-09-10T03:56:53.041Z,62.70
2017-09-10T03:59:19.174Z,62.60
2017-09-10T04:01:45.366Z,62.60
2017-09-10T04:04:11.526Z,62.40
2017-09-10T04:06:38.496Z,62.60
2017-09-10T04:09:04.664Z,62.60
2017-09-10T04:11:31.570Z,62.40
2017-09-10T04:13:57.715Z,62.10
2017-09-10T04:16:24.644Z,62.50
2017-09-10T04:18:50.821Z,62.30
2017-09-10T04:21:17.023Z,62.60
2017-09-10T04:23:43.213Z,62.30
2017-09-10T04:26:09.487Z,62.20
2017-09-10T04:28:36.393Z,62.20
2017-09-10T04:31:02.658Z,62.20
2017-09-10T04:33:28.849Z,62.20
2017-09-10T04:35:55.015Z,62.40
2017-09-10T04:38:21.171Z,62.30
2017-09-10T04:40:48.078Z,62.30
2017-09-10T04:43:14.251Z,62.30
2017-09-10T04:45:40.445Z,62.20
2017-09-10T04:48:06.696Z,62.30
2017-09-10T04:50:32.858Z,62.20
2017-09-10T04:52:59.043Z,62.20
2017-09-10T04:55:25.206Z,62.60
2017-09-10T04:57:51.428Z,62.80
2017-09-10T05:00:17.589Z,62.90
2017-09-10T05:02:43.798Z,63.10
2017-09-10T05:05:09.994Z,63.30
2017-09-10T05:07:36.222Z,63.00
2017-09-10T05:10:02.433Z,62.90
2017-09-10T05:12:28.604Z,62.70
2017-09-10T05:14:54.907Z,62.70
2017-09-10T05:17:21.072Z,63.30
2017-09-10T05:19:47.297Z,63.20
2017-09-10T05:22:14.236Z,64.00
2017-09-10T05:24:40.516Z,63.90
2017-09-10T05:27:06.838Z,64.30
2017-09-10T05:29:33.019Z,64.30
2017-09-10T05:31:59.154Z,64.20
2017-09-10T05:34:25.336Z,64.20
2017-09-10T05:36:51.508Z,64.20
2017-09-10T05:39:17.699Z,64.30
2017-09-10T05:41:44.162Z,64.30
2017-09-10T05:44:10.362Z,64.30
2017-09-10T05:46:37.423Z,64.30
2017-09-10T05:49:03.607Z,64.30
2017-09-10T05:51:29.754Z,64.40
2017-09-10T05:53:55.906Z,64.40
2017-09-10T05:56:22.092Z,64.40
2017-09-10T05:58:48.257Z,64.00
2017-09-10T06:01:15.200Z,65.00
2017-09-10T06:03:41.370Z,64.20
2017-09-10T06:06:07.519Z,63.60
2017-09-10T06:08:33.710Z,63.50
2017-09-10T06:11:00.066Z,63.50
2017-09-10T06:13:26.221Z,63.20
2017-09-10T06:15:52.439Z,63.70
2017-09-10T06:18:18.631Z,63.40
2017-09-10T06:20:45.004Z,63.10
2017-09-10T06:23:11.250Z,62.80
2017-09-10T06:25:37.459Z,62.40
2017-09-10T06:28:03.592Z,62.70
2017-09-10T06:30:29.713Z,62.50
2017-09-10T06:32:55.850Z,62.00
2017-09-10T06:35:22.774Z,62.90
2017-09-10T06:37:49.655Z,61.80
2017-09-10T06:40:16.887Z,61.80
2017-09-10T06:42:43.018Z,61.70
2017-09-10T06:45:09.199Z,61.20
2017-09-10T06:47:35.398Z,61.70
2017-09-10T06:50:01.593Z,61.40
2017-09-10T06:52:28.522Z,60.80
2017-09-10T06:54:54.724Z,60.80
2017-09-10T06:57:21.643Z,60.80
2017-09-10T06:59:47.887Z,60.80
2017-09-10T07:02:14.799Z,60.40
2017-09-10T07:04:40.960Z,60.40
2017-09-10T07:07:07.142Z,60.30
2017-09-10T07:09:33.318Z,60.10
2017-09-10T07:11:59.479Z,60.20
2017-09-10T07:14:25.681Z,60.10
2017-09-10T07:16:51.851Z,59.40
2017-09-10T07:19:18.002Z,59.10
2017-09-10T07:21:44.914Z,59.90
2017-09-10T07:24:11.082Z,59.80
2017-09-10T07:26:37.450Z,59.60
2017-09-10T07:29:04.352Z,58.80
2017-09-10T07:31:30.506Z,59.00
2017-09-10T07:33:56.691Z,59.20
2017-09-10T07:36:22.887Z,58.70
2017-09-10T07:38:49.058Z,58.40
2017-09-10T07:41:15.297Z,57.10
2017-09-10T07:43:41.492Z,57.60
2017-09-10T07:46:07.643Z,57.10
2017-09-10T07:48:33.823Z,57.20
2017-09-10T07:51:00.699Z,56.80
2017-09-10T07:53:26.892Z,56.80
2017-09-10T07:55:53.116Z,56.00
2017-09-10T07:58:19.274Z,55.50
2017-09-10T08:00:45.447Z,56.10
2017-09-10T08:03:11.617Z,55.50
2017-09-10T08:05:37.780Z,54.90
2017-09-10T08:08:03.980Z,54.20
2017-09-10T08:10:30.161Z,54.80
2017-09-10T08:12:56.330Z,54.80
2017-09-10T08:15:22.519Z,54.10
2017-09-10T08:17:48.690Z,54.50
2017-09-10T08:20:14.886Z,53.40
2017-09-10T08:22:41.104Z,51.70
2017-09-10T08:25:07.259Z,51.20
2017-09-10T08:27:33.435Z,50.50
2017-09-10T08:29:59.570Z,50.10
2017-09-10T08:32:25.750Z,49.90
2017-09-10T08:34:51.940Z,50.20
2017-09-10T08:37:18.188Z,49.80
2017-09-10T08:39:44.374Z,49.80
2017-09-10T08:42:10.588Z,49.40
2017-09-10T08:44:36.750Z,49.60
2017-09-10T08:47:02.927Z,48.60
2017-09-10T08:49:29.187Z,49.00
2017-09-10T08:51:56.113Z,50.10
2017-09-10T08:54:22.312Z,50.10
2017-09-10T08:56:48.516Z,49.70
2017-09-10T08:59:14.723Z,49.80
2017-09-10T09:01:40.980Z,50.10
2017-09-10T09:04:07.237Z,49.60
2017-09-10T09:06:33.432Z,50.00
2017-09-10T09:09:00.384Z,50.00
2017-09-10T09:11:26.799Z,49.90
2017-09-10T09:13:53.330Z,50.10
2017-09-10T09:16:19.526Z,49.60
2017-09-10T09:18:45.694Z,49.20
2017-09-10T09:21:11.878Z,49.50
2017-09-10T09:23:38.079Z,49.80
2017-09-10T09:26:04.681Z,49.70
2017-09-10T09:28:30.852Z,49.10
2017-09-10T09:30:57.019Z,48.20
2017-09-10T09:33:23.207Z,48.90
2017-09-10T09:35:50.165Z,48.20
2017-09-10T09:38:16.330Z,48.10
2017-09-10T09:40:42.522Z,47.90
2017-09-10T09:43:08.691Z,48.10
2017-09-10T09:45:34.891Z,48.00
2017-09-10T09:48:01.103Z,47.90
2017-09-10T09:50:28.076Z,48.70
2017-09-10T09:52:54.307Z,47.90
2017-09-10T09:55:20.508Z,48.00
2017-09-10T09:57:46.654Z,47.90
2017-09-10T10:00:12.815Z,47.20
2017-09-10T10:02:38.982Z,48.10
2017-09-10T10:05:05.921Z,47.30
2017-09-10T10:07:32.839Z,46.90
2017-09-10T10:09:59.572Z,46.90
2017-09-10T10:12:26.839Z,47.30
2017-09-10T10:14:53.017Z,46.90
2017-09-10T10:17:19.910Z,48.00
2017-09-10T10:19:46.032Z,47.90
2017-09-10T10:22:12.186Z,47.80
2017-09-10T10:24:38.335Z,47.40
2017-09-10T10:27:04.482Z,47.20
2017-09-10T10:29:32.179Z,46.80
2017-09-10T10:31:58.338Z,46.80
2017-09-10T10:34:24.506Z,46.00
2017-09-10T10:36:50.659Z,46.80
2017-09-10T10:39:16.817Z,46.90
2017-09-10T10:41:42.960Z,46.40
2017-09-10T10:44:09.106Z,46.60
2017-09-10T10:46:35.259Z,45.60
2017-09-10T10:49:01.414Z,45.20
2017-09-10T10:51:28.311Z,45.20
2017-09-10T10:53:54.438Z,45.20
2017-09-10T10:56:20.599Z,45.10
2017-09-10T10:58:46.738Z,45.20
2017-09-10T11:01:12.878Z,44.30
2017-09-10T11:03:39.016Z,44.40
2017-09-10T11:06:05.150Z,43.90
2017-09-10T11:08:31.362Z,44.00
2017-09-10T11:10:57.740Z,44.10
2017-09-10T11:13:24.631Z,43.90
2017-09-10T11:15:50.811Z,43.80
2017-09-10T11:18:16.993Z,43.80
2017-09-10T11:20:43.911Z,43.50
2017-09-10T11:23:10.071Z,43.40
2017-09-10T11:25:36.216Z,42.90
2017-09-10T11:28:04.172Z,42.50
2017-09-10T11:30:30.395Z,42.10
2017-09-10T11:32:56.551Z,39.90
2017-09-10T11:35:22.773Z,41.30
2017-09-10T11:37:48.919Z,40.20
2017-09-10T11:40:15.084Z,40.40
2017-09-10T11:42:41.979Z,39.30
2017-09-10T11:45:08.118Z,39.30
2017-09-10T11:47:35.011Z,39.50
2017-09-10T11:50:01.126Z,39.40
2017-09-10T11:52:28.915Z,38.20
2017-09-10T11:54:55.886Z,38.60
2017-09-10T11:57:22.100Z,38.70
2017-09-10T11:59:49.416Z,39.50
2017-09-10T12:02:15.825Z,39.60
2017-09-10T12:04:42.034Z,40.00
2017-09-10T12:07:08.170Z,41.00
2017-09-10T12:09:34.355Z,39.20
2017-09-10T12:12:00.745Z,39.30
2017-09-10T12:14:26.911Z,39.10
2017-09-10T12:16:53.123Z,38.70
2017-09-10T12:19:19.269Z,39.00
2017-09-10T12:21:45.510Z,39.50
2017-09-10T12:24:11.667Z,39.90
2017-09-10T12:26:37.792Z,40.00
2017-09-10T12:29:03.927Z,39.10
2017-09-10T12:31:30.095Z,39.00
2017-09-10T12:33:56.303Z,40.60
2017-09-10T12:36:23.215Z,40.30
2017-09-10T12:38:49.368Z,40.30
2017-09-10T12:41:15.501Z,40.40
2017-09-10T12:43:41.832Z,39.70
2017-09-10T12:46:07.970Z,39.60
2017-09-10T12:48:34.178Z,39.20
2017-09-10T12:51:00.327Z,39.40
2017-09-10T12:53:26.528Z,38.40
2017-09-10T12:55:53.414Z,38.30
2017-09-10T12:58:19.667Z,38.30
2017-09-10T13:00:45.828Z,38.40
2017-09-10T13:03:11.962Z,38.10
2017-09-10T13:05:38.119Z,38.50
2017-09-10T13:08:04.548Z,38.50
2017-09-10T13:10:32.735Z,38.70
2017-09-10T13:12:58.891Z,39.40
2017-09-10T13:15:25.081Z,39.50
2017-09-10T13:17:51.223Z,38.80
2017-09-10T13:20:17.417Z,38.30
2017-09-10T13:22:43.546Z,39.00
2017-09-10T13:25:16.195Z,39.20
2017-09-10T13:27:44.064Z,39.20
2017-09-10T13:30:10.276Z,39.40
2017-09-10T13:32:46.569Z,39.80
2017-09-10T13:35:12.905Z,38.40
2017-09-10T13:37:39.100Z,40.40
2017-09-10T13:40:05.279Z,37.40
2017-09-10T13:42:31.427Z,36.80
2017-09-10T13:44:58.514Z,37.30
2017-09-10T13:47:24.725Z,37.40
2017-09-10T13:49:50.852Z,36.40
2017-09-10T13:52:16.981Z,36.10
2017-09-10T13:54:43.123Z,36.50
2017-09-10T13:57:09.367Z,35.90
2017-09-10T13:59:35.678Z,35.20
2017-09-10T14:02:02.624Z,36.30
2017-09-10T14:04:28.778Z,36.30
2017-09-10T14:06:58.433Z,35.60
2017-09-10T14:09:24.651Z,36.30
2017-09-10T14:11:50.870Z,35.70
2017-09-10T14:14:17.026Z,36.20
2017-09-10T14:16:43.202Z,36.30
2017-09-10T14:19:09.349Z,36.60
2017-09-10T14:21:35.519Z,36.70
2017-09-10T14:24:01.731Z,36.50
2017-09-10T14:26:32.240Z,36.20
2017-09-10T14:28:58.387Z,36.80
2017-09-10T14:31:24.587Z,37.30
2017-09-10T14:33:51.111Z,36.80
2017-09-10T14:36:17.336Z,36.80
2017-09-10T14:38:44.499Z,36.90
2017-09-10T14:41:10.665Z,36.80
2017-09-10T14:43:36.830Z,37.00
2017-09-10T14:46:03.720Z,36.40
2017-09-10T14:48:29.889Z,36.40
2017-09-10T14:50:56.047Z,36.90
2017-09-10T14:53:22.210Z,37.40
2017-09-10T14:55:48.359Z,35.80
2017-09-10T14:58:14.524Z,35.50
2017-09-10T15:00:41.428Z,36.50
2017-09-10T15:03:14.823Z,36.50
2017-09-10T15:05:41.783Z,35.60
2017-09-10T15:08:07.982Z,35.60
2017-09-10T15:10:34.863Z,35.10
2017-09-10T15:13:01.046Z,35.10
2017-09-10T15:15:27.308Z,35.50
2017-09-10T15:17:54.250Z,37.40
2017-09-10T15:20:21.118Z,36.70
2017-09-10T15:22:48.343Z,36.60
2017-09-10T15:25:14.471Z,37.20
2017-09-10T15:27:40.767Z,37.10
2017-09-10T15:30:06.942Z,36.70
2017-09-10T15:32:33.107Z,36.60
2017-09-10T15:34:59.354Z,36.60
2017-09-10T15:37:25.548Z,36.90
2017-09-10T15:39:51.730Z,37.00
2017-09-10T15:42:17.978Z,36.90
2017-09-10T15:44:44.222Z,36.90
2017-09-10T15:47:10.372Z,37.00
2017-09-10T15:49:36.535Z,37.00
2017-09-10T15:52:02.750Z,36.70
2017-09-10T15:54:28.907Z,37.10
2017-09-10T15:56:55.046Z,37.20
2017-09-10T15:59:21.222Z,37.30
2017-09-10T16:01:47.421Z,37.40
2017-09-10T16:04:13.827Z,37.20
2017-09-10T16:06:40.737Z,36.80
2017-09-10T16:09:06.902Z,36.80
2017-09-10T16:11:33.031Z,36.40
2017-09-10T16:13:59.171Z,36.00
2017-09-10T16:16:25.298Z,35.60
2017-09-10T16:18:51.440Z,35.40
2017-09-10T16:21:17.614Z,35.50
2017-09-10T16:23:43.827Z,36.20
2017-09-10T16:26:12.433Z,35.80
2017-09-10T16:28:38.620Z,36.10
2017-09-10T16:31:05.551Z,35.80
2017-09-10T16:33:32.464Z,36.00
2017-09-10T16:35:58.610Z,36.20
2017-09-10T16:38:24.740Z,36.10
2017-09-10T16:40:50.896Z,36.40
2017-09-10T16:43:17.050Z,36.00
2017-09-10T16:45:43.183Z,36.30
2017-09-10T16:48:09.311Z,36.40
2017-09-10T16:50:35.489Z,36.60
2017-09-10T16:53:01.657Z,37.00
2017-09-10T16:55:27.821Z,37.10
2017-09-10T16:57:53.954Z,37.40
2017-09-10T17:00:21.114Z,38.30
2017-09-10T17:02:47.495Z,37.50
2017-09-10T17:05:13.678Z,38.10
2017-09-10T17:07:39.864Z,37.80
2017-09-10T17:10:09.711Z,37.80
2017-09-10T17:12:36.091Z,38.00
2017-09-10T17:15:02.824Z,37.80
2017-09-10T17:17:29.040Z,37.90
2017-09-10T17:19:55.252Z,38.00
2017-09-10T17:22:21.606Z,37.90
2017-09-10T17:24:47.796Z,38.10
2017-09-10T17:27:14.068Z,38.20
2017-09-10T17:29:40.249Z,41.50
2017-09-10T17:32:06.451Z,42.70
2017-09-10T17:34:32.718Z,42.20
2017-09-10T17:36:58.895Z,43.70
2017-09-10T17:39:25.296Z,43.60
2017-09-10T17:41:51.986Z,42.90
2017-09-10T17:44:18.903Z,41.90
2017-09-10T17:46:45.067Z,42.50
2017-09-10T17:49:11.236Z,42.20
2017-09-10T17:51:38.133Z,43.70
2017-09-10T17:54:04.282Z,43.70
2017-09-10T17:56:31.299Z,45.10
2017-09-10T17:58:58.182Z,46.70
2017-09-10T18:01:24.371Z,46.00
2017-09-10T18:03:50.537Z,45.90
2017-09-10T18:06:16.691Z,46.30
2017-09-10T18:08:42.931Z,47.00
2017-09-10T18:11:09.087Z,46.40
2017-09-10T18:13:35.252Z,46.80
2017-09-10T18:16:01.371Z,47.40
2017-09-10T18:18:27.572Z,47.50
2017-09-10T18:20:53.745Z,47.40
2017-09-10T18:23:20.699Z,47.40
2017-09-10T18:25:46.843Z,47.40
2017-09-10T18:28:14.316Z,47.40
2017-09-10T18:30:40.498Z,48.20
2017-09-10T18:33:06.659Z,47.80
2017-09-10T18:35:33.526Z,48.40
2017-09-10T18:37:59.668Z,48.40
2017-09-10T18:40:25.812Z,48.10
2017-09-10T18:42:51.952Z,47.40
2017-09-10T18:45:18.095Z,47.90
2017-09-10T18:47:44.454Z,48.90
2017-09-10T18:50:11.345Z,47.80
2017-09-10T18:52:37.511Z,47.90
2017-09-10T18:55:03.691Z,48.20
2017-09-10T18:57:29.885Z,46.90
2017-09-10T18:59:56.050Z,46.90
2017-09-10T19:02:23.337Z,47.30
2017-09-10T19:04:49.582Z,47.20
2017-09-10T19:07:16.487Z,48.00
2017-09-10T19:09:46.043Z,47.80
2017-09-10T19:12:12.173Z,47.50
2017-09-10T19:14:38.413Z,47.30
2017-09-10T19:17:04.712Z,48.50
2017-09-10T19:19:30.889Z,48.60
2017-09-10T19:21:57.015Z,48.00
2017-09-10T19:24:23.155Z,50.40
2017-09-10T19:26:49.347Z,49.90
2017-09-10T19:29:15.508Z,49.50
2017-09-10T19:31:42.378Z,48.80
2017-09-10T19:34:08.675Z,48.80
2017-09-10T19:36:35.993Z,49.70
2017-09-10T19:39:02.195Z,50.10
2017-09-10T19:41:29.179Z,50.80
2017-09-10T19:43:55.322Z,50.80
2017-09-10T19:46:21.479Z,51.50
2017-09-10T19:48:47.685Z,51.70
2017-09-10T19:51:13.858Z,51.00
2017-09-10T19:53:40.009Z,51.70
2017-09-10T19:56:06.160Z,51.10
2017-09-10T19:58:32.299Z,51.50
2017-09-10T20:00:58.488Z,51.50
2017-09-10T20:03:25.991Z,51.40
2017-09-10T20:05:52.179Z,51.90
2017-09-10T20:08:19.107Z,49.50
2017-09-10T20:10:46.051Z,48.90
2017-09-10T20:13:12.178Z,48.80
2017-09-10T20:15:38.355Z,47.30
2017-09-10T20:18:04.488Z,47.40
2017-09-10T20:20:31.402Z,48.50
2017-09-10T20:22:57.562Z,48.60
2017-09-10T20:25:24.189Z,47.40
2017-09-10T20:27:50.420Z,48.10
2017-09-10T20:30:16.651Z,47.20
2017-09-10T20:32:42.769Z,48.20
2017-09-10T20:35:09.892Z,47.50
2017-09-10T20:37:36.046Z,46.90
2017-09-10T20:40:02.226Z,46.80
2017-09-10T20:42:28.459Z,46.40
2017-09-10T20:44:54.661Z,46.40
2017-09-10T20:47:21.054Z,46.50
2017-09-10T20:49:47.287Z,46.50
2017-09-10T20:52:13.496Z,46.50
2017-09-10T20:54:39.667Z,46.60
2017-09-10T20:57:05.849Z,46.60
2017-09-10T20:59:31.972Z,46.50
2017-09-10T21:01:58.130Z,46.50
2017-09-10T21:04:24.270Z,46.50
2017-09-10T21:06:51.598Z,47.00
2017-09-10T21:09:21.118Z,47.60
2017-09-10T21:11:47.275Z,47.50
2017-09-10T21:14:13.418Z,48.90
2017-09-10T21:16:40.374Z,48.90
2017-09-10T21:19:06.526Z,48.90
2017-09-10T21:21:32.674Z,50.10
2017-09-10T21:23:59.549Z,50.70
2017-09-10T21:26:25.711Z,50.70
2017-09-10T21:28:51.874Z,50.60
2017-09-10T21:31:18.015Z,51.00
2017-09-10T21:33:44.165Z,51.40
2017-09-10T21:36:10.524Z,51.50
2017-09-10T21:38:36.739Z,52.10
2017-09-10T21:43:39.900Z,51.90
2017-09-10T21:46:06.052Z,51.70
2017-09-10T21:48:32.215Z,51.80
2017-09-10T21:50:58.447Z,52.50
2017-09-10T21:53:24.614Z,52.10
2017-09-10T21:55:50.761Z,52.40
2017-09-10T21:58:16.928Z,51.70
2017-09-10T22:00:43.054Z,50.80
2017-09-10T22:03:09.235Z,50.90
2017-09-10T22:05:35.365Z,50.20
2017-09-10T22:08:11.735Z,50.10
2017-09-10T22:10:37.918Z,50.10
2017-09-10T22:13:04.806Z,50.40
2017-09-10T22:15:30.934Z,50.40
2017-09-10T22:17:57.488Z,50.30
2017-09-10T22:20:23.640Z,50.30
2017-09-10T22:22:49.944Z,50.20
2017-09-10T22:25:16.178Z,50.10
2017-09-10T22:27:42.325Z,50.30
2017-09-10T22:30:09.252Z,50.30
2017-09-10T22:32:35.398Z,50.20
2017-09-10T22:35:01.573Z,50.30
2017-09-10T22:37:27.718Z,50.10
2017-09-10T22:39:54.122Z,50.20
2017-09-10T22:42:20.322Z,51.20
2017-09-10T22:44:47.202Z,50.50
2017-09-10T22:47:13.358Z,50.30
2017-09-10T22:49:39.535Z,50.30
2017-09-10T22:52:05.668Z,50.00
2017-09-10T22:54:31.931Z,50.10
2017-09-10T22:56:58.115Z,50.10
2017-09-10T22:59:25.010Z,50.20
2017-09-10T23:01:51.338Z,50.20
2017-09-10T23:04:17.496Z,50.60
2017-09-10T23:06:43.650Z,50.30
2017-09-10T23:09:09.842Z,50.70
2017-09-10T23:11:36.071Z,50.40
2017-09-10T23:14:02.245Z,50.70
2017-09-10T23:16:28.381Z,50.40
2017-09-10T23:18:54.540Z,50.70
2017-09-10T23:21:21.476Z,50.00
2017-09-10T23:23:47.615Z,50.70
2017-09-10T23:26:13.787Z,51.00
2017-09-10T23:28:39.940Z,51.10
2017-09-10T23:31:06.255Z,51.10
2017-09-10T23:33:32.398Z,51.80
2017-09-10T23:35:58.559Z,51.10
2017-09-10T23:38:25.459Z,51.00
2017-09-10T23:40:51.655Z,51.00
2017-09-10T23:43:17.796Z,50.80
2017-09-10T23:45:43.939Z,50.60
2017-09-10T23:48:10.085Z,50.60
2017-09-10T23:50:36.254Z,50.60
2017-09-10T23:53:02.394Z,50.50
2017-09-10T23:55:28.531Z,50.60
2017-09-10T23:57:54.659Z,50.10
